Hattiesburg, MS

5:08 AM CST on February 01, 2015 (GMT -0600)
Chain Municipal | Change Station
CLOSE
Current Station
Airport
Location: Hattiesburg,
Elevation: 151 ft
Nearby Weather Stations

Elev 151 ft 31.27 °N, 89.26 °W | Updated 15 minutes ago

Overcast
Overcast
49 °F
Feels Like 49 °F
N
0
Wind Variable Wind from North

Today
High -- | Low -- °F
--% Chance of Precip.
Yesterday
High -- | Low -- °F
Precip. -- in
6:49 AM 5:32 PM
Waxing Gibbous, 94% visible
Pressure 30.06 in
Visibility 10.0 miles
Clouds Overcast 9000 ft
Dew Point 45 °F
Humidity 86%
Rainfall 0.00 in
Snow Depth Not available.
UV 0 out of 12
Pollen 8.00 out of 12
Air Quality Not available.
Flu Activity Not available.
METAR KHBG 011053Z AUTO 00000KT 10SM OVC090 09/07 A3006 RMK AO2 SLP177 T00940072

More Conditions Fewer Conditions

Pressure 30.06 in
Visibility 10.0 miles
Clouds Overcast 9000 ft
Dew Point 45 °F
Humidity 86%
Rainfall 0.00 in
Snow Depth Not available.
UV 0 out of 12
Pollen 8.00 out of 12
Air Quality Not available.
Flu Activity Not available.
METAR KHBG 011053Z AUTO 00000KT 10SM OVC090 09/07 A3006 RMK AO2 SLP177 T00940072

More Conditions Fewer Conditions

10-Day Weather Forecast

Almanac

Astronomy

Feb. 01, 2015 Rise Set
Actual Time
Civil Twilight
Nautical Twilight
Astronomical Twilight
Moon
Length of Visible Light
Length of Day
Tomorrow will be .
, % of the Moon is Illuminated

Today's Extremes

State Highs State Lows

Community

WunderPhotos

Upload Photos

1,792,345 photos uploaded!

WunderBlogs® & News

Nearby

Air Quality

  Air Quality AQ Index Pollutant
Not available.

Snow Depth

Station Depth Elevation

Earthquake Activity

City Distance Mag. Time & Date
Minimum magnitude displayed is 2.5.

Coastal Water Temperatures

Place Temperature

Nearby Weather Stations